createdAt,value
2023-01-06T00:00:07.526Z,3.70
2023-01-06T00:03:12.766Z,4.20
2023-01-06T00:06:01.499Z,4.00
2023-01-06T00:08:50.511Z,3.90
2023-01-06T00:11:38.880Z,4.20
2023-01-06T00:14:28.055Z,3.90
2023-01-06T00:17:21.353Z,4.00
2023-01-06T00:20:10.127Z,4.30
2023-01-06T00:23:04.458Z,4.40
2023-01-06T00:25:53.155Z,4.30
2023-01-06T00:28:43.516Z,4.40
2023-01-06T00:34:03.731Z,4.40
2023-01-06T00:36:57.995Z,4.80
2023-01-06T00:39:44.337Z,4.90
2023-01-06T00:42:31.069Z,4.70
2023-01-06T00:45:23.183Z,5.00
2023-01-06T00:48:09.901Z,4.80
2023-01-06T00:51:01.510Z,5.40
2023-01-06T00:53:48.359Z,5.50
2023-01-06T00:56:40.479Z,5.30
2023-01-06T00:59:27.339Z,5.40
2023-01-06T01:02:14.978Z,5.80
2023-01-06T01:05:01.818Z,6.60
2023-01-06T01:07:48.373Z,5.60
2023-01-06T01:10:35.182Z,6.00
2023-01-06T01:13:22.591Z,6.00
2023-01-06T01:16:10.220Z,5.70
2023-01-06T01:18:58.067Z,6.10
2023-01-06T01:21:44.792Z,6.00
2023-01-06T01:24:34.497Z,6.00
2023-01-06T01:27:21.368Z,6.00
2023-01-06T01:30:09.192Z,6.10
2023-01-06T01:33:13.713Z,5.50
2023-01-06T01:36:09.147Z,6.70
2023-01-06T01:38:57.353Z,6.00
2023-01-06T01:41:44.501Z,6.10
2023-01-06T01:44:54.120Z,6.40
2023-01-06T01:47:56.167Z,6.50
2023-01-06T01:50:52.414Z,6.20
2023-01-06T01:53:44.933Z,6.30
2023-01-06T01:56:36.962Z,5.90
2023-01-06T01:59:31.204Z,5.80
2023-01-06T02:02:20.279Z,6.80
2023-01-06T02:05:08.000Z,6.10
2023-01-06T02:08:01.421Z,6.40
2023-01-06T02:10:49.776Z,6.00
2023-01-06T02:13:47.738Z,6.20
2023-01-06T02:17:06.651Z,5.80
2023-01-06T02:20:24.532Z,6.10
2023-01-06T02:23:56.223Z,6.10
2023-01-06T02:26:59.101Z,6.70
2023-01-06T02:30:04.793Z,6.40
2023-01-06T02:33:18.818Z,6.50
2023-01-06T02:36:29.609Z,6.20
2023-01-06T02:39:48.325Z,5.50
2023-01-06T02:42:42.164Z,5.50
2023-01-06T02:45:41.811Z,5.40
2023-01-06T02:48:44.787Z,5.30
2023-01-06T02:51:47.515Z,4.90
2023-01-06T02:54:55.332Z,5.00
2023-01-06T02:57:53.775Z,3.80
2023-01-06T03:00:52.112Z,4.40
2023-01-06T03:03:44.887Z,3.90
2023-01-06T03:06:44.624Z,3.90
2023-01-06T03:09:37.550Z,3.60
2023-01-06T03:12:32.752Z,3.70
2023-01-06T03:15:20.308Z,3.60
2023-01-06T03:18:07.677Z,3.80
2023-01-06T03:20:59.417Z,4.00
2023-01-06T03:23:47.008Z,3.80
2023-01-06T03:26:33.724Z,3.60
2023-01-06T03:29:21.742Z,3.90
2023-01-06T03:32:14.641Z,3.90
2023-01-06T03:35:31.000Z,3.90
2023-01-06T03:38:20.342Z,4.10
2023-01-06T03:42:04.453Z,4.10
2023-01-06T03:45:08.515Z,3.80
2023-01-06T03:48:10.587Z,4.50
2023-01-06T03:51:05.601Z,4.10
2023-01-06T03:54:01.402Z,4.10
2023-01-06T03:57:11.478Z,4.60
2023-01-06T04:00:15.706Z,5.00
2023-01-06T04:03:02.567Z,4.50
2023-01-06T04:05:48.938Z,4.50
2023-01-06T04:08:35.813Z,4.50
2023-01-06T04:11:40.928Z,4.60
2023-01-06T04:14:28.643Z,4.50
2023-01-06T04:17:15.450Z,5.00
2023-01-06T04:20:02.779Z,5.10
2023-01-06T04:22:49.539Z,5.00
2023-01-06T04:25:36.632Z,5.10
2023-01-06T04:28:23.244Z,5.50
2023-01-06T04:31:10.197Z,5.30
2023-01-06T04:33:57.293Z,5.10
2023-01-06T04:36:44.274Z,5.50
2023-01-06T04:39:32.140Z,5.20
2023-01-06T04:42:20.441Z,5.30
2023-01-06T04:45:08.047Z,5.40
2023-01-06T04:47:55.706Z,5.20
2023-01-06T04:50:42.433Z,4.80
2023-01-06T04:53:28.908Z,5.50
2023-01-06T04:56:15.568Z,5.40
2023-01-06T04:59:02.383Z,5.80
2023-01-06T05:02:01.267Z,5.60
2023-01-06T05:04:49.014Z,5.80
2023-01-06T05:07:39.642Z,5.00
2023-01-06T05:10:37.040Z,5.60
2023-01-06T05:13:23.782Z,5.00
2023-01-06T05:16:32.300Z,5.40
2023-01-06T05:19:19.139Z,5.30
2023-01-06T05:22:05.785Z,5.10
2023-01-06T05:24:52.440Z,7.90
2023-01-06T05:27:39.204Z,5.20
2023-01-06T05:30:25.763Z,5.00
2023-01-06T05:33:13.174Z,5.10
2023-01-06T05:36:09.284Z,8.80
2023-01-06T05:38:56.184Z,6.30
2023-01-06T05:41:43.715Z,4.90
2023-01-06T05:44:33.163Z,4.90
2023-01-06T05:47:19.960Z,4.70
2023-01-06T05:50:07.221Z,4.50
2023-01-06T05:52:54.118Z,5.20
2023-01-06T05:55:41.419Z,4.70
2023-01-06T05:58:28.888Z,4.90
2023-01-06T06:01:31.339Z,4.90
2023-01-06T06:04:18.726Z,4.80
2023-01-06T06:07:05.781Z,4.70
2023-01-06T06:09:53.618Z,5.20
2023-01-06T06:12:40.419Z,5.00
2023-01-06T06:15:27.004Z,5.00
2023-01-06T06:18:13.802Z,5.00
2023-01-06T06:21:05.553Z,4.70
2023-01-06T06:23:53.872Z,5.50
2023-01-06T06:26:41.675Z,5.40
2023-01-06T06:29:30.557Z,5.00
2023-01-06T06:32:17.615Z,5.00
2023-01-06T06:35:04.695Z,4.70
2023-01-06T06:37:53.746Z,4.90
2023-01-06T06:40:45.108Z,4.50
2023-01-06T06:43:32.478Z,4.90
2023-01-06T06:46:20.404Z,4.90
2023-01-06T06:49:07.387Z,4.80
2023-01-06T06:51:55.524Z,4.30
2023-01-06T06:54:43.111Z,4.90
2023-01-06T06:57:30.210Z,5.20
2023-01-06T07:00:17.312Z,5.20
2023-01-06T07:03:03.814Z,5.00
2023-01-06T07:05:52.873Z,5.20
2023-01-06T07:08:43.377Z,5.70
2023-01-06T07:11:29.842Z,5.50
2023-01-06T07:14:16.441Z,5.30
2023-01-06T07:17:03.228Z,5.20
2023-01-06T07:19:49.577Z,5.40
2023-01-06T07:22:40.484Z,5.10
2023-01-06T07:25:27.344Z,11.20
2023-01-06T07:28:13.512Z,7.30
2023-01-06T07:31:08.792Z,16.00
2023-01-06T07:33:55.577Z,23.50
2023-01-06T07:36:42.179Z,11.60
2023-01-06T07:39:29.022Z,6.30
2023-01-06T07:42:21.391Z,5.60
2023-01-06T07:45:08.702Z,5.50
2023-01-06T07:47:56.756Z,5.40
2023-01-06T07:50:43.711Z,5.10
2023-01-06T07:53:30.372Z,5.10
2023-01-06T07:56:19.113Z,5.20
2023-01-06T07:59:06.153Z,4.80
2023-01-06T08:01:53.111Z,5.00
2023-01-06T08:04:40.180Z,4.80
2023-01-06T08:07:27.079Z,4.80
2023-01-06T08:10:13.816Z,5.20
2023-01-06T08:13:00.731Z,4.90
2023-01-06T08:15:51.809Z,5.50
2023-01-06T08:18:39.437Z,5.40
2023-01-06T08:21:25.787Z,5.20
2023-01-06T08:24:13.865Z,5.60
2023-01-06T08:27:00.555Z,5.50
2023-01-06T08:29:50.189Z,6.10
2023-01-06T08:32:37.146Z,6.50
2023-01-06T08:35:24.435Z,6.30
2023-01-06T08:38:10.895Z,5.90
2023-01-06T08:40:58.731Z,6.00
2023-01-06T08:43:47.166Z,5.60
2023-01-06T08:46:34.572Z,5.70
2023-01-06T08:49:21.745Z,5.60
2023-01-06T08:52:08.371Z,5.60
2023-01-06T08:54:55.262Z,5.30
2023-01-06T08:57:41.901Z,5.70
2023-01-06T09:00:28.709Z,5.70
2023-01-06T09:03:15.989Z,6.30
2023-01-06T09:06:04.345Z,6.20
2023-01-06T09:08:51.475Z,6.40
2023-01-06T09:11:40.526Z,7.90
2023-01-06T09:14:27.160Z,5.90
2023-01-06T09:17:13.749Z,5.70
2023-01-06T09:20:00.537Z,5.90
2023-01-06T09:22:48.158Z,6.20
2023-01-06T09:25:34.694Z,6.80
2023-01-06T09:28:28.734Z,6.30
2023-01-06T09:31:15.134Z,6.70
2023-01-06T09:34:01.645Z,6.20
2023-01-06T09:36:47.933Z,6.20
2023-01-06T09:39:37.110Z,7.40
2023-01-06T09:42:35.506Z,6.80
2023-01-06T09:45:30.730Z,6.20
2023-01-06T09:48:24.109Z,6.00
2023-01-06T09:51:18.837Z,6.20
2023-01-06T09:54:42.742Z,6.10
2023-01-06T09:57:34.234Z,6.90
2023-01-06T10:00:35.216Z,6.80
2023-01-06T10:03:24.389Z,6.50
2023-01-06T10:06:38.635Z,7.00
2023-01-06T10:09:37.514Z,7.00
2023-01-06T10:12:56.132Z,6.50
2023-01-06T10:16:01.637Z,6.80
2023-01-06T10:19:03.296Z,6.40
2023-01-06T10:22:04.888Z,7.20
2023-01-06T10:25:12.517Z,6.60
2023-01-06T10:28:02.631Z,6.90
2023-01-06T10:30:51.589Z,7.40
2023-01-06T10:34:01.181Z,7.40
2023-01-06T10:37:05.378Z,7.90
2023-01-06T10:39:59.260Z,7.10
2023-01-06T10:42:55.643Z,8.10
2023-01-06T10:45:44.200Z,8.00
2023-01-06T10:48:33.447Z,8.20
2023-01-06T10:51:39.219Z,8.40
2023-01-06T10:54:29.995Z,7.90
2023-01-06T10:57:32.340Z,7.70
2023-01-06T11:00:24.477Z,7.90
2023-01-06T11:03:31.895Z,8.00
2023-01-06T11:06:29.032Z,8.20
2023-01-06T11:09:41.230Z,7.90
2023-01-06T11:12:29.825Z,8.00
2023-01-06T11:15:24.479Z,8.20
2023-01-06T11:18:24.864Z,7.80
2023-01-06T11:21:20.697Z,8.30
2023-01-06T11:24:18.994Z,8.70
2023-01-06T11:27:16.888Z,7.90
2023-01-06T11:30:25.747Z,8.10
2023-01-06T11:33:22.344Z,8.20
2023-01-06T11:40:34.312Z,8.10
2023-01-06T11:43:29.009Z,8.20
2023-01-06T11:46:16.104Z,8.70
2023-01-06T11:49:06.455Z,9.00
2023-01-06T11:56:14.321Z,9.60
2023-01-06T11:59:15.111Z,9.50
2023-01-06T12:02:02.657Z,9.00
2023-01-06T12:04:52.852Z,8.40
2023-01-06T12:07:46.095Z,8.60
2023-01-06T12:10:37.630Z,9.00
2023-01-06T12:13:25.227Z,9.00
2023-01-06T12:20:41.504Z,9.20
2023-01-06T12:23:33.144Z,9.30
2023-01-06T12:26:24.750Z,9.50
2023-01-06T12:29:17.624Z,9.30
2023-01-06T12:32:22.630Z,9.00
2023-01-06T12:35:16.456Z,9.30
2023-01-06T12:38:55.192Z,9.50
2023-01-06T12:41:52.229Z,9.30
2023-01-06T12:45:01.800Z,9.50
2023-01-06T12:47:55.362Z,10.10
2023-01-06T12:51:15.606Z,10.00
2023-01-06T12:54:11.577Z,10.90
2023-01-06T12:57:35.798Z,10.60
2023-01-06T13:00:53.913Z,11.10
2023-01-06T13:04:14.045Z,11.50
2023-01-06T13:07:19.605Z,10.70
2023-01-06T13:10:24.784Z,10.90
2023-01-06T13:13:23.703Z,10.40
2023-01-06T13:16:24.053Z,9.60
2023-01-06T13:19:19.769Z,10.00
2023-01-06T13:22:11.813Z,10.80
2023-01-06T13:25:25.550Z,10.00
2023-01-06T13:28:20.124Z,11.30
2023-01-06T13:31:29.354Z,10.30
2023-01-06T13:34:37.657Z,11.10
2023-01-06T13:37:37.659Z,11.70
2023-01-06T13:40:29.597Z,12.60
2023-01-06T13:43:24.378Z,12.10
2023-01-06T13:46:16.163Z,11.80
2023-01-06T13:49:05.289Z,11.50
2023-01-06T13:51:53.747Z,11.60
2023-01-06T13:54:40.241Z,11.90
2023-01-06T13:57:31.782Z,12.60
2023-01-06T14:00:30.820Z,13.80
2023-01-06T14:03:24.219Z,12.50
2023-01-06T14:06:40.081Z,13.50
2023-01-06T14:09:28.295Z,12.50
2023-01-06T14:12:22.239Z,13.60
2023-01-06T14:15:26.636Z,12.40
2023-01-06T14:18:38.713Z,12.00
2023-01-06T14:21:28.877Z,13.20
2023-01-06T14:24:35.232Z,12.20
2023-01-06T14:27:47.705Z,12.10
2023-01-06T14:30:36.647Z,11.50
2023-01-06T14:33:35.764Z,12.00
2023-01-06T14:36:23.560Z,13.40
2023-01-06T14:39:21.106Z,12.70
2023-01-06T14:42:41.825Z,11.40
2023-01-06T14:45:35.203Z,13.00
2023-01-06T14:48:26.248Z,14.00
2023-01-06T14:51:17.739Z,15.70
2023-01-06T14:54:13.857Z,16.30
2023-01-06T14:57:01.320Z,16.90
2023-01-06T15:00:08.635Z,18.30
2023-01-06T15:02:57.503Z,20.50
2023-01-06T15:05:44.793Z,19.70
2023-01-06T15:08:31.491Z,20.80
2023-01-06T15:14:33.243Z,19.90
2023-01-06T15:17:20.914Z,21.90
2023-01-06T15:20:13.533Z,19.30
2023-01-06T15:23:00.723Z,18.50
2023-01-06T15:25:55.786Z,17.00
2023-01-06T15:28:42.342Z,18.30
2023-01-06T15:31:35.197Z,18.30
2023-01-06T15:34:30.100Z,19.50
2023-01-06T15:37:25.365Z,19.20
2023-01-06T15:40:22.722Z,20.50
2023-01-06T15:43:09.071Z,19.60
2023-01-06T15:46:01.877Z,19.30
2023-01-06T15:48:49.739Z,18.50
2023-01-06T15:51:36.425Z,19.20
2023-01-06T15:54:25.204Z,18.90
2023-01-06T15:57:16.488Z,18.50
2023-01-06T16:00:07.738Z,18.60
2023-01-06T16:02:55.984Z,20.10
2023-01-06T16:05:49.761Z,20.10
2023-01-06T16:08:37.059Z,25.50
2023-01-06T16:11:47.871Z,25.70
2023-01-06T16:14:38.596Z,21.00
2023-01-06T16:17:33.369Z,20.20
2023-01-06T16:20:24.758Z,20.30
2023-01-06T16:23:40.613Z,20.70
2023-01-06T16:26:30.070Z,21.20
2023-01-06T16:29:36.452Z,16.90
2023-01-06T16:32:30.127Z,18.50
2023-01-06T16:35:24.188Z,19.30
2023-01-06T16:38:10.808Z,19.50
2023-01-06T16:40:57.284Z,21.30
2023-01-06T16:43:45.427Z,22.60
2023-01-06T16:46:31.966Z,25.40
2023-01-06T16:49:20.432Z,22.40
2023-01-06T16:52:08.698Z,23.50
2023-01-06T16:54:57.251Z,22.30
2023-01-06T16:57:49.605Z,22.60
2023-01-06T17:00:39.376Z,23.20
2023-01-06T17:03:36.688Z,25.00
2023-01-06T17:06:26.543Z,25.60
2023-01-06T17:09:21.808Z,24.40
2023-01-06T17:12:34.386Z,24.40
2023-01-06T17:15:21.555Z,24.80
2023-01-06T17:18:28.906Z,25.40
2023-01-06T17:21:18.015Z,25.70
2023-01-06T17:24:18.657Z,26.10
2023-01-06T17:27:27.867Z,26.20
2023-01-06T17:30:19.766Z,26.80
2023-01-06T17:33:07.876Z,26.10
2023-01-06T17:39:19.130Z,28.00
2023-01-06T17:42:07.999Z,27.60
2023-01-06T17:45:01.864Z,27.60
2023-01-06T17:47:50.800Z,29.90
2023-01-06T17:50:47.809Z,27.90
2023-01-06T17:53:55.613Z,30.80
2023-01-06T17:56:48.418Z,32.10
2023-01-06T17:59:43.338Z,34.60
2023-01-06T18:02:44.518Z,37.70
2023-01-06T18:05:32.690Z,37.10
2023-01-06T18:08:21.237Z,34.00
2023-01-06T18:11:21.059Z,34.70
2023-01-06T18:14:22.860Z,37.30
2023-01-06T18:17:23.193Z,36.90
2023-01-06T18:20:10.124Z,37.60
2023-01-06T18:22:57.137Z,40.70
2023-01-06T18:25:43.987Z,37.20
2023-01-06T18:28:30.414Z,40.10
2023-01-06T18:31:17.447Z,40.80
2023-01-06T18:34:19.792Z,39.60
2023-01-06T18:37:06.521Z,39.90
2023-01-06T18:39:57.551Z,39.50
2023-01-06T18:42:46.611Z,41.40
2023-01-06T18:45:39.142Z,46.60
2023-01-06T18:48:31.895Z,54.40
2023-01-06T18:51:24.963Z,49.30
2023-01-06T18:54:19.199Z,39.40
2023-01-06T18:57:23.823Z,40.80
2023-01-06T19:00:36.224Z,39.90
2023-01-06T19:03:31.613Z,36.50
2023-01-06T19:06:17.960Z,36.50
2023-01-06T19:09:39.871Z,41.20
2023-01-06T19:12:36.063Z,37.50
2023-01-06T19:15:25.014Z,36.50
2023-01-06T19:18:16.387Z,39.30
2023-01-06T19:21:05.509Z,37.50
2023-01-06T19:23:51.715Z,37.90
2023-01-06T19:26:41.357Z,38.90
2023-01-06T19:29:32.430Z,35.60
2023-01-06T19:34:03.203Z,31.50
2023-01-06T19:36:52.296Z,35.90
2023-01-06T19:39:50.543Z,37.80
2023-01-06T19:42:36.851Z,40.20
2023-01-06T19:45:34.975Z,40.20
2023-01-06T19:48:30.503Z,43.90
2023-01-06T19:51:30.365Z,44.00
2023-01-06T19:54:16.919Z,40.50
2023-01-06T19:57:17.603Z,38.60
2023-01-06T20:00:23.403Z,39.20
2023-01-06T20:03:32.535Z,39.30
2023-01-06T20:06:20.192Z,40.40
2023-01-06T20:09:23.122Z,33.90
2023-01-06T20:12:09.882Z,37.50
2023-01-06T20:14:56.582Z,38.50
2023-01-06T20:17:43.110Z,35.80
2023-01-06T20:20:29.990Z,36.90
2023-01-06T20:23:18.368Z,37.60
2023-01-06T20:26:05.139Z,37.50
2023-01-06T20:28:52.052Z,37.50
2023-01-06T20:31:38.842Z,39.50
2023-01-06T20:34:25.760Z,39.00
2023-01-06T20:37:12.181Z,39.50
2023-01-06T20:40:01.270Z,36.00
2023-01-06T20:42:48.263Z,36.20
2023-01-06T20:45:34.963Z,36.50
2023-01-06T20:48:21.859Z,38.60
2023-01-06T20:51:10.092Z,37.20
2023-01-06T20:53:56.776Z,35.70
2023-01-06T20:56:43.684Z,35.90
2023-01-06T20:59:30.333Z,37.80
2023-01-06T21:02:17.177Z,36.90
2023-01-06T21:05:05.285Z,39.00
2023-01-06T21:07:51.903Z,40.30
2023-01-06T21:10:38.810Z,36.50
2023-01-06T21:13:25.493Z,40.50
2023-01-06T21:16:14.663Z,38.90
2023-01-06T21:19:01.056Z,41.10
2023-01-06T21:21:48.752Z,42.70
2023-01-06T21:24:35.572Z,46.70
2023-01-06T21:27:22.283Z,41.00
2023-01-06T21:30:09.786Z,40.60
2023-01-06T21:32:56.132Z,40.30
2023-01-06T21:35:44.067Z,40.10
2023-01-06T21:38:33.018Z,40.40
2023-01-06T21:41:38.762Z,44.10
2023-01-06T21:44:25.155Z,42.00
2023-01-06T21:47:11.862Z,44.30
2023-01-06T21:49:58.575Z,40.30
2023-01-06T21:52:46.619Z,40.30
2023-01-06T21:55:33.106Z,46.20
2023-01-06T21:58:21.483Z,47.10
2023-01-06T22:01:08.387Z,44.50
2023-01-06T22:03:54.908Z,45.90
2023-01-06T22:06:43.701Z,44.00
2023-01-06T22:09:31.475Z,47.70
2023-01-06T22:12:19.685Z,45.60
2023-01-06T22:15:09.107Z,53.90
2023-01-06T22:17:58.935Z,48.50
2023-01-06T22:20:46.146Z,55.30
2023-01-06T22:23:33.740Z,48.70
2023-01-06T22:26:20.376Z,54.40
2023-01-06T22:29:08.198Z,54.10
2023-01-06T22:32:00.045Z,53.00
2023-01-06T22:34:46.925Z,56.40
2023-01-06T22:37:33.635Z,60.90
2023-01-06T22:40:20.791Z,58.10
2023-01-06T22:43:12.265Z,59.10
2023-01-06T22:45:58.675Z,56.60
2023-01-06T22:48:45.809Z,59.30
2023-01-06T22:51:32.780Z,58.30
2023-01-06T22:54:19.376Z,57.20
2023-01-06T22:57:06.168Z,63.30
2023-01-06T22:59:52.857Z,56.70
2023-01-06T23:02:39.810Z,56.30
2023-01-06T23:05:26.794Z,63.60
2023-01-06T23:08:13.287Z,58.30
2023-01-06T23:11:02.286Z,60.20
2023-01-06T23:13:49.030Z,57.60
2023-01-06T23:16:36.400Z,61.50
2023-01-06T23:19:22.888Z,74.40
2023-01-06T23:22:09.274Z,71.20
2023-01-06T23:24:55.662Z,69.10
2023-01-06T23:27:42.297Z,64.50
2023-01-06T23:30:29.742Z,83.50
2023-01-06T23:33:15.952Z,67.70
2023-01-06T23:36:04.993Z,63.50
2023-01-06T23:38:52.260Z,62.10
2023-01-06T23:41:38.898Z,63.10
2023-01-06T23:44:25.589Z,62.50
2023-01-06T23:47:12.459Z,63.40
2023-01-06T23:49:59.271Z,62.80
2023-01-06T23:52:45.994Z,70.40
2023-01-06T23:55:32.651Z,67.50
2023-01-06T23:58:19.308Z,65.20
